x

Eel River - 17nm Wsw Of Eureka, Ca (46022) Wave Buoy

7:50pm - Thu 26th Mar 2015 All times are PDT. -7 hours from GMT.

  • Sig Wave height 6.9ft
  • Swell Direction
  • Peak Period 12s
  • Average Period 8s
  • Wind
    13mph, 16mph gusts
  • Sea Temp 53°f
  • Air Temp 52°f
  • Sea Pressure 1020.9mb
  • Eel River - 17nm Wsw Of Eureka, Ca
  • Eel River - 17nm Wsw Of Eureka, Ca

More Historic Weather Station data

Upgrade to MSW Pro to gain access to the past 30 days of data for over 8000 Wavebouys and Weather Stations around the globe.

Join Pro

Comparision Forecast

View Surf forecast
   
Thu 03/26 7:50pm 7ft 12s 8s 13 16 mph 1020.9mb 53f 52f
6:50pm 7ft 12s 8s 13 16 mph 1020.9mb 53f 52f
5:50pm 6.5ft 12s 8s 13 16 mph 1021mb 53f 52f
4:50pm 6ft 11s 7s 13 16 mph 1021.4mb 53f 53f
3:50pm 7ft 12s 8s 13 16 mph 1021.9mb 53f 53f
2:50pm 6.5ft 11s 8s 13 16 mph 1022.5mb 53f 52f
1:50pm 6ft 12s 8s 13 16 mph 1023mb 53f 52f
12:50pm 7ft 11s 8s 13 16 mph 1023.3mb 53f 52f
11:50am 7ft 11s 8s 11 13 mph 1023.6mb 53f 51f
10:50am 7.5ft 11s 8s 13 16 mph 1023.8mb 53f 52f
9:50am 7ft 11s 8s 13 16 mph 1023.7mb 53f 52f
8:50am 7.5ft 10s 8s 16 18 mph 1023.4mb 53f 51f
7:50am 7.5ft 11s 8s 11 13 mph 1023.5mb 53f 51f
6:50am 7ft 11s 8s 13 16 mph 1023mb 53f 51f
5:50am 8ft 11s 8s 13 16 mph 1023mb 53f 51f
4:50am 7ft 11s 8s 13 16 mph 1023.1mb 53f 51f
3:50am 6.5ft 11s 8s 13 16 mph 1023.7mb 53f 51f
2:50am 7ft 12s 8s 13 18 mph 1023.9mb 53f 51f
1:50am 6.5ft 11s 8s 13 18 mph 1024.1mb 54f 51f
12:50am 7ft 11s 8s 13 16 mph 1024.7mb 54f 52f
Wed 03/25 11:50pm 7ft 11s 8s 16 18 mph 1025.4mb 54f 52f
10:50pm 6.5ft 12s 7s 16 20 mph 1025.9mb 54f 52f
9:50pm 6ft 11s 7s 16 18 mph 1026.5mb 53f 52f
8:50pm 6.5ft 12s 7s 16 20 mph 1026.3mb 52f 52f
7:50pm 5.5ft 11s 7s 16 18 mph 1025.8mb 53f 52f
6:50pm 6.5ft 11s 8s 13 18 mph 1025.9mb 53f 54f
5:50pm 6ft 11s 7s 13 16 mph 1025.9mb 53f 55f
4:50pm 6ft 11s 8s 13 16 mph 1026.2mb 53f 55f
3:50pm 6ft 11s 8s 13 16 mph 1026.6mb 53f 53f
2:50pm 5.5ft 11s 8s 9 11 mph 1026.6mb 53f 52f
1:50pm 6.5ft 10s 8s 11 13 mph 1027.3mb 53f 52f
12:50pm 6ft 9s 8s 11 13 mph 1027.7mb 53f 52f
11:50am 6.5ft 11s 9s 9 11 mph 1027.8mb 53f 53f
10:50am 7ft 10s 9s 7 9 mph 1027.8mb 53f 53f
9:50am 8ft 11s 9s 7 11 mph 1027.6mb 53f 53f
8:50am 8ft 11s 9s 4 9 mph 1027.1mb 52f 52f
7:50am 7.5ft 11s 9s 7
mph
1026.7mb 52f 52f
6:50am 7ft 11s 9s 4 7 mph 1026.7mb 52f 51f
5:50am 7ft 11s 9s 4 7 mph 1026.4mb 52f 50f
4:50am 8ft 11s 9s 2 4 mph 1026.4mb 52f 50f
3:50am 7ft 11s 9s 4 7 mph 1026.6mb 52f 50f
2:50am 7.5ft 11s 9s 7 9 mph 1026.9mb 52f 51f
1:50am 7.5ft 11s 9s 2 4 mph 1026.8mb 53f 52f
12:50am 7ft 12s 9s  -  2 mph 1027.1mb 53f 53f
Tue 03/24 11:50pm 8ft 13s 9s 2 4 mph 1027.3mb 53f 53f
10:50pm 8ft 11s 8s  -  4 mph 1027.2mb 53f 54f
9:50pm 8.5ft 12s 9s  -  2 mph 1027.3mb 53f 54f
8:50pm 10ft 12s 9s 2 4 mph 1027.2mb 53f 53f
7:50pm 10ft 11s 9s  -  4 mph 1026.6mb 53f 53f
6:50pm 11.5ft 11s 9s 4 7 mph 1026.1mb 53f 54f
5:50pm 10.5ft 12s 8s 4 7 mph 1026.2mb 53f 54f
4:50pm 10ft 11s 8s 4 7 mph 1026.2mb 53f 55f
3:50pm 10.5ft 12s 8s  -  2 mph 1026.4mb 53f 54f
2:50pm 11.5ft 11s 9s 2 4 mph 1026.3mb 54f 54f
1:50pm 10ft 11s 9s 2 4 mph 1026.3mb 55f 54f
12:50pm 9.5ft 11s 9s 4 9 mph 1026.4mb 54f 54f
11:50am 9.5ft 12s 9s 9 11 mph 1026.5mb 54f 53f
10:50am 9ft 13s 9s 4 9 mph 1026.8mb 54f 53f
9:50am 9.5ft 11s 9s 7 9 mph 1026.1mb 54f 53f
8:50am 10ft 11s 9s 4 9 mph 1025.4mb 54f 53f
7:50am 11ft 11s 9s 2 4 mph 1024.7mb 54f 53f
6:50am 11ft 12s 9s 7 11 mph 1024mb 54f 54f
5:50am 11ft 13s 8s 4 7 mph 1023.4mb 54f 53f
4:50am 11ft 8s 8s 9 11 mph 1023.3mb 54f 55f
3:50am 10.5ft 13s 8s 11 16 mph 1023.5mb 54f 55f
2:50am 10ft 12s 8s 11 13 mph 1023.7mb 54f 54f
1:50am 10ft 13s 8s 16 20 mph 1023.5mb 54f 54f
12:50am 10ft 13s 8s 16 18 mph 1023.5mb 54f 54f
Mon 03/23 11:50pm 11ft 12s 8s 20 22 mph 1023.3mb 53f 55f
10:50pm 10ft 12s 7s 20 27 mph 1023.4mb 54f 53f
9:50pm 10ft 12s 7s 29 34 mph 1022.7mb 53f 53f
8:50pm 9.5ft 13s 7s 31 40 mph 1022mb 54f 52f
7:50pm 9.5ft 12s 7s 31 40 mph 1022mb 54f 52f
6:50pm 9.5ft 12s 7s 27 34 mph 1022.5mb 54f 53f
5:50pm 10.5ft 13s 8s 29 34 mph 1022.7mb 54f 54f
4:50pm 10ft 13s 8s 27 31 mph 1023.2mb 54f 54f
3:50pm 10ft 13s 8s 25 29 mph 1023.6mb 54f 54f
2:50pm 9ft 13s 7s 27 29 mph 1023.7mb 54f 54f
1:50pm 9.5ft 13s 8s 22 27 mph 1024.4mb 54f 54f
12:50pm 8ft 12s 7s 20 25 mph 1024.6mb 54f 54f
11:50am 8.5ft 13s 8s 18 22 mph 1024.9mb 54f 53f
10:50am 8ft 14s 8s 18 20 mph 1024.7mb 54f 53f
9:50am 9ft 12s 8s 16 18 mph 1024.2mb 54f 53f
8:50am 9ft 14s 8s 11 13 mph 1023.9mb 54f 53f
7:50am 10ft 12s 9s 11 13 mph 1023.3mb 54f 54f
6:50am 11ft 14s 9s 9 11 mph 1022.8mb 54f 53f
5:50am 11ft 11s 8s 11 13 mph 1022.4mb 54f 53f
4:50am 10ft 12s 8s 11 13 mph 1021.6mb 54f 54f